Time;durP1;ratioP1;P1;durP2;ratioP2;P2;SDS_P1;SDS_P2;PMS_P1;PMS_P2;Temp;Humidity;BMP_temperature;BMP_pressure;BME280_temperature;BME280_humidity;BME280_pressure;Samples;Min_cycle;Max_cycle;Signal;HPM_P1;HPM_P2
2024/01/02 00:02:18;;;;;;;6.75;2.45;;;;;;;-11.72;58.02;99471.91;5080194;28;20036;-69
2024/01/02 00:04:44;;;;;;;7.15;3.10;;;;;;;-11.74;57.86;99463.47;5081238;28;20601;-67
2024/01/02 00:07:10;;;;;;;9.65;3.08;;;;;;;-11.75;57.83;99467.63;5081001;28;20044;-67
2024/01/02 00:09:36;;;;;;;6.57;2.72;;;;;;;-12.08;57.53;99420.81;5079593;28;20602;-64
2024/01/02 00:12:04;;;;;;;6.38;2.42;;;;;;;-12.08;57.63;99423.34;5068728;28;20042;-67
2024/01/02 00:14:30;;;;;;;8.57;2.67;;;;;;;-11.85;57.56;99464.59;5081118;28;20047;-68
2024/01/02 00:16:57;;;;;;;6.30;2.28;;;;;;;-12.16;57.92;99414.59;5084387;28;20037;-64
2024/01/02 00:19:23;;;;;;;5.88;2.40;;;;;;;-11.94;57.84;99466.63;5068455;28;20127;-64
2024/01/02 00:21:50;;;;;;;7.85;2.78;;;;;;;-11.96;57.35;99463.19;5084561;28;20470;-65
2024/01/02 00:24:16;;;;;;;8.20;3.03;;;;;;;-11.93;57.81;99451.66;5067941;28;20036;-68
2024/01/02 00:26:43;;;;;;;5.97;2.47;;;;;;;-12.21;58.17;99408.50;5051672;28;20130;-69
2024/01/02 00:29:09;;;;;;;3.72;2.20;;;;;;;-11.91;57.87;99456.75;5070182;28;20032;-66
2024/01/02 00:31:35;;;;;;;6.07;2.85;;;;;;;-11.96;57.89;99456.53;5086927;28;20043;-65
2024/01/02 00:34:01;;;;;;;6.20;2.30;;;;;;;-12.10;57.47;99455.84;5069433;28;20047;-65
2024/01/02 00:36:28;;;;;;;6.75;2.92;;;;;;;-12.23;57.38;99453.50;5087987;28;20464;-66
2024/01/02 00:38:54;;;;;;;8.63;2.35;;;;;;;-12.64;57.22;99405.44;5085811;28;20071;-68
2024/01/02 00:41:20;;;;;;;8.23;3.13;;;;;;;-12.47;57.70;99457.25;5084841;28;20043;-68
2024/01/02 00:43:46;;;;;;;7.82;2.10;;;;;;;-12.84;58.18;99404.41;5088366;28;20040;-64
2024/01/02 00:46:12;;;;;;;8.00;2.60;;;;;;;-12.64;57.95;99446.34;5069808;28;20043;-67
2024/01/02 00:48:40;;;;;;;4.38;2.03;;;;;;;-12.66;58.15;99455.41;5087587;28;20040;-66
2024/01/02 00:51:06;;;;;;;6.95;2.08;;;;;;;-12.88;58.10;99423.41;5070928;28;20040;-69
2024/01/02 00:53:33;;;;;;;8.68;1.90;;;;;;;-12.82;58.03;99450.34;5085094;28;20562;-63
2024/01/02 00:56:00;;;;;;;17.25;1.90;;;;;;;-12.98;58.15;99433.66;5055225;28;20094;-64
2024/01/02 00:58:27;;;;;;;5.07;2.22;;;;;;;-12.93;58.40;99444.81;5085581;28;20104;-66
2024/01/02 01:00:53;;;;;;;4.15;1.35;;;;;;;-12.97;58.57;99447.03;5084760;28;20048;-67
2024/01/02 01:03:19;;;;;;;7.88;2.40;;;;;;;-13.03;58.05;99444.25;5087894;28;20076;-68
2024/01/02 01:05:45;;;;;;;9.70;2.58;;;;;;;-13.02;58.15;99446.78;5071666;28;20059;-68
2024/01/02 01:08:12;;;;;;;6.82;2.38;;;;;;;-13.06;58.24;99442.41;5069549;28;20076;-65
2024/01/02 01:10:38;;;;;;;5.18;2.28;;;;;;;-13.11;58.26;99432.97;5082381;28;20040;-66
2024/01/02 01:13:04;;;;;;;7.28;2.50;;;;;;;-13.20;58.10;99438.34;5087681;28;20051;-67
2024/01/02 01:15:30;;;;;;;2.85;1.25;;;;;;;-13.22;59.01;99432.38;5086347;28;20093;-68
2024/01/02 01:17:57;;;;;;;8.25;3.40;;;;;;;-13.25;58.35;99443.88;5070341;28;20043;-68
2024/01/02 01:20:23;;;;;;;3.35;1.80;;;;;;;-13.29;58.95;99437.00;5086644;28;20090;-67
2024/01/02 01:22:49;;;;;;;3.85;1.73;;;;;;;-13.32;58.84;99441.03;5088084;28;20557;-68
2024/01/02 01:25:15;;;;;;;5.65;1.88;;;;;;;-13.35;59.08;99435.00;5093131;28;20043;-54
2024/01/02 01:27:41;;;;;;;6.75;1.58;;;;;;;-13.36;59.12;99439.16;5079088;28;20048;-61
2024/01/02 01:30:08;;;;;;;4.32;2.35;;;;;;;-13.36;59.00;99440.78;5080328;28;20047;-64
2024/01/02 01:32:34;;;;;;;10.63;2.58;;;;;;;-13.38;59.03;99435.69;5064832;28;20499;-64
2024/01/02 01:35:00;;;;;;;7.53;2.38;;;;;;;-13.40;59.51;99436.41;5084610;28;20396;-65
2024/01/02 01:37:28;;;;;;;5.85;2.45;;;;;;;-13.40;58.82;99441.41;5052755;28;20059;-66
2024/01/02 01:39:56;;;;;;;7.32;2.63;;;;;;;-13.35;58.74;99450.88;5049194;28;20049;-67
2024/01/02 01:42:23;;;;;;;10.05;4.00;;;;;;;-13.30;58.97;99453.63;5086618;28;20051;-67
2024/01/02 01:44:49;;;;;;;6.25;2.13;;;;;;;-13.25;58.88;99453.88;5067704;28;20060;-65
2024/01/02 01:47:15;;;;;;;7.07;1.25;;;;;;;-13.21;58.75;99454.13;5066601;28;20059;-65
2024/01/02 01:49:41;;;;;;;4.85;2.13;;;;;;;-13.17;58.40;99450.13;5049579;28;20040;-66
2024/01/02 01:52:09;;;;;;;5.40;2.03;;;;;;;-13.39;58.82;99401.47;5052651;28;20056;-66
2024/01/02 01:54:35;;;;;;;5.05;2.13;;;;;;;-13.09;59.15;99438.91;5085079;28;20044;-64
2024/01/02 01:57:03;;;;;;;1.80;1.20;;;;;;;-13.38;58.68;99400.69;5082951;28;20044;-64
2024/01/02 01:59:31;;;;;;;4.78;1.55;;;;;;;-13.14;59.06;99436.19;5066789;28;20143;-65
2024/01/02 02:01:58;;;;;;;2.40;1.70;;;;;;;-13.13;58.71;99437.88;5085631;28;20040;-66
2024/01/02 02:04:26;;;;;;;3.97;2.28;;;;;;;-13.09;58.35;99428.91;5049708;28;20070;-64
2024/01/02 02:06:53;;;;;;;5.10;1.50;;;;;;;-13.62;58.33;99329.38;5082679;28;20195;-63
2024/01/02 02:09:19;;;;;;;5.75;1.55;;;;;;;-12.96;58.74;99432.13;5082560;28;20036;-63
2024/01/02 02:11:45;;;;;;;5.65;1.98;;;;;;;-13.08;58.44;99396.44;5086919;28;20138;-63
2024/01/02 02:14:12;;;;;;;5.40;1.70;;;;;;;-13.21;57.94;99368.25;5070408;28;20044;-64
2024/01/02 02:16:42;;;;;;;6.70;2.38;;;;;;;-12.82;58.23;99424.50;5050941;28;20036;-63
2024/01/02 02:19:09;;;;;;;4.30;1.38;;;;;;;-13.10;58.16;99388.00;5066497;28;20036;-63
2024/01/02 02:21:35;;;;;;;7.85;2.35;;;;;;;-12.81;57.82;99431.22;5063349;28;20059;-63
2024/01/02 02:24:02;;;;;;;5.28;2.00;;;;;;;-12.82;57.72;99437.84;5080114;28;20127;-64
2024/01/02 02:26:29;;;;;;;4.40;1.73;;;;;;;-12.76;57.94;99429.81;5074756;28;20063;-64
2024/01/02 02:28:56;;;;;;;3.85;1.77;;;;;;;-12.77;57.53;99428.09;5083136;28;20071;-66
2024/01/02 02:31:22;;;;;;;4.68;2.00;;;;;;;-12.80;57.16;99436.31;5081238;28;20124;-63
2024/01/02 02:33:49;;;;;;;3.67;1.52;;;;;;;-12.85;56.73;99432.69;5052760;28;20040;-63
2024/01/02 02:36:15;;;;;;;4.30;2.08;;;;;;;-12.91;57.12;99433.22;5083298;28;20520;-64
2024/01/02 02:38:41;;;;;;;4.03;1.77;;;;;;;-13.05;56.80;99420.78;5084314;28;20040;-65
2024/01/02 02:41:08;;;;;;;5.57;1.83;;;;;;;-13.01;56.91;99437.66;5070666;28;20037;-63
2024/01/02 02:43:34;;;;;;;6.32;2.17;;;;;;;-13.07;56.94;99433.19;5067261;28;20508;-62
2024/01/02 02:46:01;;;;;;;4.00;1.30;;;;;;;-13.28;56.32;99397.03;5082761;28;20062;-64
2024/01/02 02:48:27;;;;;;;2.90;1.02;;;;;;;-13.41;56.84;99388.03;5082232;28;20093;-64
2024/01/02 02:50:54;;;;;;;3.42;1.77;;;;;;;-13.20;56.32;99434.97;5080871;28;20094;-64
2024/01/02 02:53:20;;;;;;;5.78;1.70;;;;;;;-13.27;56.68;99438.78;5064186;28;20062;-63
2024/01/02 02:55:46;;;;;;;6.05;1.85;;;;;;;-13.34;57.26;99432.56;5066966;28;20039;-65
2024/01/02 02:58:12;;;;;;;4.70;1.42;;;;;;;-13.45;56.54;99416.13;5067325;28;20035;-65
2024/01/02 03:00:39;;;;;;;5.03;1.42;;;;;;;-13.78;56.91;99374.28;5073044;28;20070;-60
2024/01/02 03:03:05;;;;;;;5.68;1.75;;;;;;;-13.58;57.28;99416.22;5067476;28;20032;-64
2024/01/02 03:05:31;;;;;;;6.18;1.92;;;;;;;-13.64;56.99;99412.53;5052446;28;20149;-64
2024/01/02 03:08:00;;;;;;;2.00;1.23;;;;;;;-13.91;57.24;99371.88;5082705;28;20641;-64
2024/01/02 03:10:26;;;;;;;2.60;1.70;;;;;;;-14.00;57.71;99376.34;5085940;28;20043;-65
2024/01/02 03:12:53;;;;;;;7.45;1.30;;;;;;;-13.82;57.12;99414.88;5083039;28;20563;-64
2024/01/02 03:15:19;;;;;;;3.63;1.58;;;;;;;-13.84;57.40;99419.78;5082108;28;20760;-65
2024/01/02 03:17:45;;;;;;;3.60;1.98;;;;;;;-13.85;57.32;99407.19;5085038;28;20088;-64
2024/01/02 03:20:12;;;;;;;7.30;1.27;;;;;;;-13.84;58.20;99408.91;5050638;28;20060;-66
2024/01/02 03:22:38;;;;;;;1.85;1.00;;;;;;;-13.92;57.25;99418.47;5083319;28;20252;-64
2024/01/02 03:25:04;;;;;;;4.78;0.95;;;;;;;-13.97;57.81;99417.34;5066347;28;20139;-64
2024/01/02 03:27:32;;;;;;;5.03;1.17;;;;;;;-13.95;57.97;99412.44;5084864;28;20419;-64
2024/01/02 03:29:58;;;;;;;2.28;0.73;;;;;;;-13.99;58.05;99410.56;5067921;28;20036;-67
2024/01/02 03:32:25;;;;;;;2.85;1.40;;;;;;;-14.00;57.92;99407.19;5068385;28;20032;-66
2024/01/02 03:34:51;;;;;;;4.15;1.42;;;;;;;-14.14;57.79;99379.72;5082238;28;20535;-64
2024/01/02 03:37:17;;;;;;;1.65;0.60;;;;;;;-13.88;58.11;99402.03;5083095;28;20056;-64
2024/01/02 03:39:43;;;;;;;1.33;1.08;;;;;;;-14.44;57.87;99317.31;5066302;28;20048;-64
2024/01/02 03:42:09;;;;;;;1.73;0.95;;;;;;;-13.85;57.85;99412.19;5086691;28;20042;-63
2024/01/02 03:44:35;;;;;;;1.58;1.13;;;;;;;-13.88;58.01;99405.41;5083193;28;20122;-64
2024/01/02 03:47:01;;;;;;;2.65;1.35;;;;;;;-13.89;57.74;99402.81;5085300;28;20085;-64
2024/01/02 03:49:27;;;;;;;3.15;0.80;;;;;;;-13.94;57.78;99410.03;5084837;28;20032;-60
2024/01/02 03:51:53;;;;;;;7.13;2.08;;;;;;;-13.92;57.31;99400.16;5068862;28;20507;-63
2024/01/02 03:54:19;;;;;;;3.33;1.35;;;;;;;-14.09;57.68;99364.22;5087009;28;20046;-64
2024/01/02 03:56:45;;;;;;;2.05;0.98;;;;;;;-13.86;57.17;99402.97;5084733;28;20032;-64
2024/01/02 03:59:10;;;;;;;1.77;0.68;;;;;;;-13.83;57.22;99413.16;5067990;28;20043;-64
2024/01/02 04:01:43;;;;;;;2.65;2.15;;;;;;;-13.76;57.48;99417.69;5082645;28;20040;-64
2024/01/02 04:04:09;;;;;;;1.45;1.17;;;;;;;-13.78;57.06;99410.13;5082166;28;20036;-64
2024/01/02 04:06:35;;;;;;;3.97;0.95;;;;;;;-13.77;57.16;99414.38;5083359;28;20050;-64
2024/01/02 04:09:01;;;;;;;1.20;0.73;;;;;;;-13.83;56.19;99410.66;5082436;28;20515;-65
2024/01/02 04:11:27;;;;;;;1.33;0.70;;;;;;;-13.91;56.22;99412.69;5083042;28;20583;-66
2024/01/02 04:13:53;;;;;;;0.85;0.85;;;;;;;-13.93;57.41;99406.78;5084749;28;20392;-64
2024/01/02 04:16:19;;;;;;;3.00;1.33;;;;;;;-14.05;56.59;99408.56;5084890;28;20131;-64
2024/01/02 04:18:45;;;;;;;3.05;0.93;;;;;;;-14.08;57.40;99410.91;5083515;28;20036;-65
2024/01/02 04:21:11;;;;;;;2.60;0.68;;;;;;;-14.11;57.32;99414.84;5083266;28;20040;-64
2024/01/02 04:23:36;;;;;;;1.20;0.50;;;;;;;-14.15;56.68;99408.81;5080153;28;20040;-64
2024/01/02 04:26:03;;;;;;;3.25;0.93;;;;;;;-14.15;57.40;99411.31;5081763;28;20039;-64
2024/01/02 04:28:29;;;;;;;6.65;0.85;;;;;;;-14.19;56.71;99405.28;5084324;28;20097;-65
2024/01/02 04:30:54;;;;;;;1.98;0.85;;;;;;;-14.25;57.24;99401.56;5084379;28;20335;-64
2024/01/02 04:33:20;;;;;;;1.38;0.85;;;;;;;-14.37;56.96;99384.28;5077718;28;20032;-64
2024/01/02 04:35:46;;;;;;;2.65;0.70;;;;;;;-14.69;57.36;99351.59;5086532;28;20074;-64
2024/01/02 04:38:12;;;;;;;2.70;0.85;;;;;;;-14.71;57.40;99366.50;5078727;28;20543;-64
2024/01/02 04:40:38;;;;;;;2.28;0.80;;;;;;;-14.55;57.98;99403.19;5081458;28;20082;-64
2024/01/02 04:43:03;;;;;;;2.38;1.17;;;;;;;-15.15;57.53;99304.00;5084568;28;20044;-64
2024/01/02 04:45:29;;;;;;;2.20;1.27;;;;;;;-14.96;57.71;99348.31;5083356;28;20055;-65
2024/01/02 04:47:55;;;;;;;3.13;0.73;;;;;;;-15.04;57.69;99352.00;5081167;28;20515;-64
2024/01/02 04:50:21;;;;;;;1.58;0.77;;;;;;;-14.82;58.22;99396.53;5084870;28;20036;-64
2024/01/02 04:52:47;;;;;;;6.25;1.05;;;;;;;-14.93;58.08;99383.44;5064242;28;20048;-64
2024/01/02 04:55:13;;;;;;;5.72;0.98;;;;;;;-14.88;57.86;99398.66;5083164;28;20040;-65
2024/01/02 04:57:39;;;;;;;2.75;1.02;;;;;;;-14.90;57.68;99395.22;5083060;28;20497;-66
2024/01/02 05:00:06;;;;;;;2.22;0.77;;;;;;;-14.93;58.05;99380.94;5082878;28;20090;-66
2024/01/02 05:02:32;;;;;;;4.35;1.67;;;;;;;-14.95;58.67;99409.03;5079527;28;20132;-64
2024/01/02 05:04:58;;;;;;;1.85;0.98;;;;;;;-14.96;58.42;99410.66;5042241;28;20055;-66
2024/01/02 05:07:24;;;;;;;7.40;0.98;;;;;;;-14.93;57.99;99408.38;5072289;28;20044;-65
2024/01/02 05:09:49;;;;;;;4.30;1.50;;;;;;;-14.95;57.32;99407.41;5070144;28;20048;-65
2024/01/02 05:12:17;;;;;;;2.50;1.08;;;;;;;-15.05;58.08;99398.50;5070212;28;20114;-66
2024/01/02 05:14:43;;;;;;;1.60;0.60;;;;;;;-15.13;57.63;99407.16;5076401;28;20044;-66
2024/01/02 05:17:09;;;;;;;5.57;1.70;;;;;;;-15.12;57.96;99403.88;5073482;28;20077;-65
2024/01/02 05:19:36;;;;;;;0.43;0.30;;;;;;;-15.11;57.52;99403.13;5074027;28;20127;-66
2024/01/02 05:22:03;;;;;;;2.33;1.40;;;;;;;-15.47;58.25;99365.97;5076976;28;20512;-66
2024/01/02 05:24:30;;;;;;;0.95;0.65;;;;;;;-15.28;57.68;99411.19;5073047;28;20055;-66
2024/01/02 05:26:57;;;;;;;1.80;1.45;;;;;;;-15.28;57.89;99425.28;5068747;28;20048;-66
2024/01/02 05:29:22;;;;;;;0.73;0.70;;;;;;;-15.23;57.80;99428.94;5072019;28;20044;-67
2024/01/02 05:31:48;;;;;;;9.00;1.00;;;;;;;-15.36;56.83;99417.34;5076515;28;20423;-65
2024/01/02 05:34:15;;;;;;;0.80;0.30;;;;;;;-15.43;56.88;99424.31;5084359;28;20067;-67
2024/01/02 05:36:41;;;;;;;0.63;0.30;;;;;;;-15.49;57.50;99417.34;5063912;28;20045;-66
2024/01/02 05:39:07;;;;;;;0.35;0.32;;;;;;;-15.52;57.33;99422.16;5079348;28;20047;-67
2024/01/02 05:41:33;;;;;;;0.43;0.13;;;;;;;-16.09;57.73;99328.09;5082508;28;20040;-67
2024/01/02 05:43:59;;;;;;;8.60;1.35;;;;;;;-15.51;57.50;99426.38;5056516;28;20040;-64
2024/01/02 05:46:25;;;;;;;2.05;0.50;;;;;;;-15.58;57.13;99415.16;5068965;28;20041;-66
2024/01/02 05:48:51;;;;;;;1.13;0.40;;;;;;;-15.58;57.36;99426.75;5075989;28;20059;-67
2024/01/02 05:51:18;;;;;;;0.68;0.20;;;;;;;-15.86;57.16;99384.31;5082341;28;20287;-65
2024/01/02 05:53:44;;;;;;;2.17;0.88;;;;;;;-15.59;57.79;99422.53;5081641;28;20041;-65
2024/01/02 05:56:11;;;;;;;0.60;0.45;;;;;;;-15.59;57.58;99423.38;5080391;28;20036;-66
2024/01/02 05:58:37;;;;;;;3.47;0.43;;;;;;;-15.57;57.01;99416.03;5082908;28;20380;-66
2024/01/02 06:01:03;;;;;;;6.03;1.20;;;;;;;-15.60;58.12;99421.69;5085015;28;20051;-65
2024/01/02 06:03:29;;;;;;;1.90;1.08;;;;;;;-15.68;57.08;99420.31;5074126;28;20555;-66
2024/01/02 06:05:55;;;;;;;1.63;0.45;;;;;;;-15.67;57.50;99408.72;5076193;28;20176;-67
2024/01/02 06:08:21;;;;;;;2.97;2.25;;;;;;;-15.68;58.41;99405.38;5078750;28;20071;-68
2024/01/02 06:10:47;;;;;;;4.45;0.68;;;;;;;-16.01;57.75;99356.78;5080157;28;20036;-66
2024/01/02 06:13:13;;;;;;;0.50;0.50;;;;;;;-15.70;57.55;99406.91;5080507;28;20028;-66
2024/01/02 06:15:39;;;;;;;1.02;0.65;;;;;;;-15.64;57.32;99403.94;5077751;28;20044;-67
2024/01/02 06:18:06;;;;;;;5.28;1.10;;;;;;;-15.67;57.79;99404.63;5075040;28;20048;-65
2024/01/02 06:20:31;;;;;;;1.80;0.45;;;;;;;-15.84;57.51;99374.44;5072949;28;20534;-65
2024/01/02 06:22:57;;;;;;;0.43;0.43;;;;;;;-15.75;58.42;99395.78;5071119;28;20045;-67
2024/01/02 06:25:23;;;;;;;2.35;0.88;;;;;;;-15.72;57.72;99388.53;5071355;28;20036;-66
2024/01/02 06:27:49;;;;;;;1.33;0.75;;;;;;;-15.70;58.29;99389.47;5057614;28;20043;-66
2024/01/02 06:30:16;;;;;;;0.10;0.10;;;;;;;-15.68;58.19;99402.03;5072593;28;20047;-67
2024/01/02 06:32:42;;;;;;;1.75;0.52;;;;;;;-15.71;57.62;99400.22;5077589;28;20105;-65
2024/01/02 06:35:08;;;;;;;0.80;0.57;;;;;;;-15.77;57.66;99379.03;5062692;28;20427;-67
2024/01/02 06:37:34;;;;;;;2.88;0.30;;;;;;;-15.71;58.06;99390.25;5071732;28;20040;-65
2024/01/02 06:40:00;;;;;;;1.55;0.57;;;;;;;-15.76;58.16;99396.56;5076702;28;20066;-67
2024/01/02 06:42:26;;;;;;;0.75;0.40;;;;;;;-15.97;57.76;99368.69;5070237;28;20047;-67
2024/01/02 06:44:52;;;;;;;2.00;0.32;;;;;;;-15.83;58.03;99396.06;5071698;28;20037;-66
2024/01/02 06:47:18;;;;;;;0.70;0.68;;;;;;;-15.83;58.23;99399.44;5072699;28;20420;-67
2024/01/02 06:49:44;;;;;;;0.68;0.35;;;;;;;-15.76;57.13;99393.22;5073562;28;20041;-66
2024/01/02 06:52:10;;;;;;;0.30;0.22;;;;;;;-15.68;57.27;99395.41;5091155;28;20117;-67
2024/01/02 06:54:36;;;;;;;1.10;0.63;;;;;;;-15.62;57.85;99393.31;5076874;28;20462;-65
2024/01/02 06:57:02;;;;;;;0.90;0.88;;;;;;;-15.57;57.70;99383.63;5059410;28;20051;-66
2024/01/02 06:59:28;;;;;;;0.60;0.60;;;;;;;-15.54;56.90;99388.84;5076073;28;20420;-66
2024/01/02 07:01:54;;;;;;;1.50;0.77;;;;;;;-15.53;57.54;99385.53;5082193;28;20035;-67
2024/01/02 07:04:19;;;;;;;0.57;0.57;;;;;;;-15.50;56.30;99381.59;5074699;28;20523;-67
2024/01/02 07:06:45;;;;;;;3.00;0.98;;;;;;;-15.48;56.55;99387.53;5071510;28;20130;-67
2024/01/02 07:09:11;;;;;;;0.38;0.38;;;;;;;-15.33;57.25;99379.28;5077765;28;20407;-66
2024/01/02 07:11:38;;;;;;;0.73;0.28;;;;;;;-15.24;56.39;99369.88;5074993;28;20585;-66
2024/01/02 07:14:03;;;;;;;1.35;0.90;;;;;;;-15.04;56.43;99371.94;5071536;28;20827;-65
2024/01/02 07:16:31;;;;;;;1.08;0.70;;;;;;;-15.15;55.42;99348.00;5079365;28;20064;-67
2024/01/02 07:18:58;;;;;;;1.35;0.35;;;;;;;-14.83;55.06;99375.72;5074811;28;20127;-66
2024/01/02 07:21:24;;;;;;;0.60;0.47;;;;;;;-14.99;55.09;99335.69;5077098;28;20128;-65
2024/01/02 07:23:50;;;;;;;0.90;0.38;;;;;;;-14.59;55.27;99385.41;5070451;28;20123;-65
2024/01/02 07:26:16;;;;;;;1.85;0.85;;;;;;;-14.54;54.79;99369.94;5070420;28;20039;-65
2024/01/02 07:28:42;;;;;;;0.82;0.40;;;;;;;-14.57;54.48;99361.44;5071897;28;20037;-64
2024/01/02 07:31:10;;;;;;;0.95;0.57;;;;;;;-14.40;54.56;99381.63;5072252;28;20044;-65
2024/01/02 07:33:37;;;;;;;1.70;0.73;;;;;;;-14.46;53.94;99380.38;5077137;28;20127;-62
2024/01/02 07:36:03;;;;;;;2.20;0.75;;;;;;;-14.50;54.03;99374.38;5067053;28;20091;-65
2024/01/02 07:38:30;;;;;;;0.60;0.40;;;;;;;-14.51;53.79;99375.13;5079035;28;20511;-56
2024/01/02 07:40:56;;;;;;;0.95;0.32;;;;;;;-15.00;53.85;99286.59;5077593;28;20159;-56
2024/01/02 07:43:22;;;;;;;1.25;0.80;;;;;;;-14.59;54.35;99333.88;5074461;28;20581;-55
2024/01/02 07:45:49;;;;;;;2.58;0.80;;;;;;;-14.53;53.27;99340.88;5068717;28;20096;-54
2024/01/02 07:48:15;;;;;;;0.60;0.60;;;;;;;-14.07;53.73;99376.78;5084897;28;20045;-54
2024/01/02 07:50:41;;;;;;;1.40;0.40;;;;;;;-13.75;52.51;99374.44;5081876;28;20043;-54
2024/01/02 07:53:06;;;;;;;2.22;0.45;;;;;;;-13.52;52.01;99389.09;5074574;28;20044;-55
2024/01/02 07:55:35;;;;;;;2.55;0.90;;;;;;;-13.51;51.89;99385.81;5072235;28;20118;-52
2024/01/02 07:58:02;;;;;;;3.63;1.10;;;;;;;-13.52;51.69;99373.22;5073180;28;20553;-55
2024/01/02 08:00:28;;;;;;;2.50;1.05;;;;;;;-13.24;51.76;99386.47;5074765;28;20049;-56
2024/01/02 08:02:54;;;;;;;2.85;0.75;;;;;;;-13.05;50.91;99369.09;5087816;28;20534;-55
2024/01/02 08:05:20;;;;;;;7.25;1.05;;;;;;;-12.90;50.52;99369.91;5059546;28;20042;-57
2024/01/02 08:07:46;;;;;;;2.28;0.80;;;;;;;-12.97;50.04;99359.50;5075891;28;20093;-55
2024/01/02 08:10:13;;;;;;;6.72;1.45;;;;;;;-12.65;50.46;99366.16;5051591;28;20054;-58
2024/01/02 08:12:39;;;;;;;1.35;0.68;;;;;;;-12.51;49.41;99331.03;5072929;28;20048;-55
2024/01/02 08:15:05;;;;;;;2.28;1.05;;;;;;;-12.06;49.08;99361.66;5079391;28;20568;-58
2024/01/02 08:17:32;;;;;;;1.60;1.00;;;;;;;-12.07;48.38;99329.88;5061279;28;20135;-58
2024/01/02 08:19:59;;;;;;;3.35;0.95;;;;;;;-11.63;48.00;99365.41;5085677;28;20048;-56
2024/01/02 08:22:26;;;;;;;1.75;0.90;;;;;;;-11.55;47.83;99357.38;5072123;28;20056;-57
2024/01/02 08:24:55;;;;;;;2.50;0.85;;;;;;;-11.54;47.67;99357.47;5066701;28;20460;-56
2024/01/02 08:27:24;;;;;;;1.70;0.80;;;;;;;-11.46;46.75;99360.34;5074397;28;20051;-54
2024/01/02 08:29:51;;;;;;;3.53;1.15;;;;;;;-11.24;47.20;99315.38;5082283;28;20032;-57
2024/01/02 08:32:17;;;;;;;1.00;0.75;;;;;;;-10.59;46.80;99345.91;5074896;28;20064;-59
2024/01/02 08:34:42;;;;;;;2.40;1.05;;;;;;;-10.15;46.06;99339.34;5050102;28;20507;-56
2024/01/02 08:37:09;;;;;;;1.40;0.77;;;;;;;-9.73;44.83;99353.63;5076378;28;20075;-53
2024/01/02 08:39:34;;;;;;;2.75;0.80;;;;;;;-9.37;44.55;99355.91;5068929;28;20083;-54
2024/01/02 08:42:01;;;;;;;3.35;1.50;;;;;;;-9.45;43.35;99358.97;5077235;28;20040;-58
2024/01/02 08:44:27;;;;;;;4.22;1.38;;;;;;;-9.63;43.38;99355.72;5069991;28;20119;-57
2024/01/02 08:46:52;;;;;;;7.53;1.63;;;;;;;-9.56;43.67;99362.72;5080467;28;20040;-56
2024/01/02 08:49:18;;;;;;;3.33;1.50;;;;;;;-9.75;43.37;99319.19;5076914;28;20056;-54
2024/01/02 08:51:44;;;;;;;3.72;1.30;;;;;;;-9.56;42.83;99359.34;5076882;28;20040;-55
2024/01/02 08:54:10;;;;;;;2.63;0.90;;;;;;;-9.54;42.48;99360.28;5075372;28;20115;-56
2024/01/02 08:56:36;;;;;;;5.38;1.17;;;;;;;-9.34;43.13;99361.03;5066473;28;20039;-58
2024/01/02 08:59:04;;;;;;;4.65;1.52;;;;;;;-9.21;42.56;99360.75;5081046;28;20036;-56
2024/01/02 09:01:30;;;;;;;4.40;1.58;;;;;;;-9.08;42.31;99360.38;5083072;28;20135;-55
2024/01/02 09:03:56;;;;;;;3.25;1.10;;;;;;;-9.03;42.05;99286.75;5077184;28;20048;-56
2024/01/02 09:06:22;;;;;;;3.65;1.10;;;;;;;-8.35;40.92;99352.97;5068486;28;20520;-53
2024/01/02 09:08:47;;;;;;;3.08;1.45;;;;;;;-8.07;40.49;99340.47;5087206;28;20040;-56
2024/01/02 09:11:15;;;;;;;4.70;1.75;;;;;;;-8.04;40.63;99325.44;5084376;28;20047;-56
2024/01/02 09:13:41;;;;;;;3.38;1.38;;;;;;;-8.22;40.46;99350.06;5072072;28;20518;-52
2024/01/02 09:16:10;;;;;;;3.40;1.45;;;;;;;-8.26;40.49;99353.25;5090597;28;20059;-52
2024/01/02 09:18:36;;;;;;;2.25;0.93;;;;;;;-8.42;39.78;99336.78;5086634;28;20105;-52
2024/01/02 09:21:03;;;;;;;5.15;1.48;;;;;;;-8.02;39.81;99338.09;5088676;28;20138;-56
2024/01/02 09:23:28;;;;;;;3.80;1.27;;;;;;;-7.83;39.61;99302.56;5083763;28;20779;-58
2024/01/02 09:25:59;;;;;;;3.90;1.60;;;;;;;-7.11;38.84;99335.94;5085668;28;20047;-61
2024/01/02 09:28:24;;;;;;;5.28;1.30;;;;;;;-6.75;38.70;99333.66;5078103;28;20480;-53
2024/01/02 09:30:51;;;;;;;2.40;1.20;;;;;;;-6.59;38.49;99298.72;5074129;28;20127;-56
2024/01/02 09:33:17;;;;;;;7.32;1.85;;;;;;;-6.02;38.02;99333.97;5067455;28;20047;-55
2024/01/02 09:35:43;;;;;;;3.83;1.45;;;;;;;-6.11;36.87;99337.09;5073574;28;20129;-53
2024/01/02 09:38:09;;;;;;;7.60;1.85;;;;;;;-6.61;37.55;99294.44;5073430;28;20037;-57
2024/01/02 09:40:45;;;;;;;2.30;1.08;;;;;;;-6.43;37.80;99333.72;5073517;28;20048;-57
2024/01/02 09:43:27;;;;;;;4.07;1.52;;;;;;;-6.46;37.55;99341.22;5082210;28;20043;-57
2024/01/02 09:46:14;;;;;;;3.85;1.63;;;;;;;-6.43;37.15;99333.72;5067981;28;20411;-56
2024/01/02 09:49:10;;;;;;;2.80;1.15;;;;;;;-6.74;37.21;99330.28;5082249;28;20066;-55
2024/01/02 09:51:39;;;;;;;3.97;1.05;;;;;;;-6.77;36.53;99333.59;5078327;28;20515;-56
2024/01/02 09:54:24;;;;;;;2.88;1.27;;;;;;;-6.99;36.23;99326.22;5080117;28;20487;-52
2024/01/02 09:56:53;;;;;;;8.98;1.42;;;;;;;-7.79;37.22;99329.59;5084058;28;20515;-57
2024/01/02 09:59:42;;;;;;;4.85;2.03;;;;;;;-8.63;38.04;99330.97;5087767;28;20036;-51
2024/01/02 10:02:18;;;;;;;4.72;1.60;;;;;;;-9.44;39.22;99314.56;5066607;28;20048;-53
2024/01/02 10:05:15;;;;;;;4.90;1.60;;;;;;;-10.07;40.14;99317.91;5065645;28;20113;-57
2024/01/02 10:08:02;;;;;;;3.42;1.40;;;;;;;-10.62;40.51;99322.31;5082133;28;20040;-53
2024/01/02 10:10:32;;;;;;;3.95;1.42;;;;;;;-11.05;40.92;99314.56;5082816;28;20108;-55
2024/01/02 10:13:24;;;;;;;5.90;1.60;;;;;;;-11.32;41.51;99319.19;5080619;28;20082;-59
2024/01/02 10:16:21;;;;;;;1.85;0.95;;;;;;;-11.65;41.49;99309.31;5080886;28;20634;-57
2024/01/02 10:18:56;;;;;;;2.92;1.10;;;;;;;-11.87;41.98;99313.28;5076122;28;20040;-55
2024/01/02 10:21:29;;;;;;;3.42;0.93;;;;;;;-12.03;42.34;99306.69;5084407;28;20040;-54
2024/01/02 10:24:20;;;;;;;4.38;1.25;;;;;;;-12.21;42.69;99310.81;5087413;28;20471;-57
2024/01/02 10:26:56;;;;;;;2.25;0.80;;;;;;;-12.31;42.69;99307.00;5088610;28;20035;-57
2024/01/02 10:29:36;;;;;;;4.40;1.45;;;;;;;-12.73;43.35;99263.19;5083697;28;20511;-54
2024/01/02 10:32:08;;;;;;;4.68;1.02;;;;;;;-12.86;43.42;99255.84;5085400;28;20124;-55
2024/01/02 10:34:42;;;;;;;1.45;1.20;;;;;;;-12.73;43.92;99289.84;5070980;28;20036;-52
2024/01/02 10:37:12;;;;;;;5.18;2.00;;;;;;;-12.72;44.06;99301.59;5084377;28;20040;-53
2024/01/02 10:39:45;;;;;;;2.78;1.27;;;;;;;-12.80;44.37;99292.81;5078666;28;20078;-57
2024/01/02 10:42:32;;;;;;;3.05;1.23;;;;;;;-12.85;44.79;99305.09;5071115;28;20036;-56
2024/01/02 10:45:10;;;;;;;7.75;1.73;;;;;;;-13.29;44.86;99239.47;5088790;28;20044;-55
2024/01/02 10:47:51;;;;;;;2.00;0.98;;;;;;;-12.91;45.00;99298.13;5083546;28;20161;-59
2024/01/02 10:50:21;;;;;;;1.85;0.82;;;;;;;-12.88;45.31;99303.31;5073187;28;20090;-54
2024/01/02 10:52:57;;;;;;;1.60;1.30;;;;;;;-12.75;44.70;99302.28;5081664;28;20055;-57
2024/01/02 10:55:28;;;;;;;4.43;1.58;;;;;;;-12.66;45.30;99289.34;5076677;28;20519;-56
2024/01/02 10:58:13;;;;;;;2.72;0.93;;;;;;;-12.91;44.79;99247.25;5080944;28;20576;-57
2024/01/02 11:01:03;;;;;;;2.28;0.95;;;;;;;-12.64;44.95;99292.81;5079647;28;20606;-55
2024/01/02 11:03:35;;;;;;;1.63;0.90;;;;;;;-12.68;45.30;99295.94;5075793;28;20143;-54
2024/01/02 11:06:13;;;;;;;3.58;1.15;;;;;;;-12.73;44.84;99293.22;5078840;28;20050;-59
2024/01/02 11:09:00;;;;;;;2.27;1.40;;;;;;;-12.79;45.17;99287.03;5082566;28;20044;-53
2024/01/02 11:11:29;;;;;;;2.75;1.10;;;;;;;-12.88;45.21;99288.31;5073706;28;20302;-55
2024/01/02 11:13:56;;;;;;;7.65;2.22;;;;;;;-12.93;45.07;99299.72;5072577;28;20045;-54
2024/01/02 11:16:25;;;;;;;4.40;1.40;;;;;;;-13.03;45.42;99294.16;5066497;28;20523;-60
2024/01/02 11:18:57;;;;;;;7.65;1.73;;;;;;;-13.47;45.47;99235.25;5074620;28;20040;-58
2024/01/02 11:21:40;;;;;;;3.25;1.75;;;;;;;-13.18;45.96;99293.38;5069878;28;20085;-60
2024/01/02 11:24:09;;;;;;;1.88;1.00;;;;;;;-13.38;46.15;99263.19;5074455;28;20057;-58
2024/01/02 11:26:41;;;;;;;3.17;1.15;;;;;;;-13.23;46.17;99299.78;5073956;28;20503;-53
2024/01/02 11:29:21;;;;;;;3.63;1.67;;;;;;;-13.30;46.34;99288.63;5075342;28;20072;-58
2024/01/02 11:31:49;;;;;;;5.70;1.33;;;;;;;-13.31;46.54;99294.41;5058118;28;20036;-54